This is the latest recevied weather packets stored in our database for station/object HS1AL-1. If no packets are shown the sender has not sent any weather packets the latest 10 day(s).
| Time | Temp. | Humidity | Pressure | Rain* | Wind** | Luminosity | Snow |
|---|---|---|---|---|---|---|---|
| 1777382177 | 40° C | 37% | 1004 hPa | - | - | 0 W/m² | - |
| 1777381252 | 39.44° C | 38% | 1004 hPa | - | - | 0 W/m² | - |
| 1777380323 | 40.56° C | 37% | 1003 hPa | - | - | 0 W/m² | - |
| 1777379391 | 40° C | 39% | 1003 hPa | - | - | 0 W/m² | - |
| 1777378462 | 40° C | 38% | 1003 hPa | - | - | 0 W/m² | - |
| 1777377531 | 41.11° C | 36% | 1003 hPa | - | - | 0 W/m² | - |
| 1777376604 | 41.11° C | 36% | 1002 hPa | - | - | 0 W/m² | - |
| 1777375675 | 41.67° C | 33% | 1002 hPa | - | - | 0 W/m² | - |
| 1777374747 | 41.67° C | 32% | 1002 hPa | - | - | 0 W/m² | - |
| 1777373983 | 41.67° C | 32% | 1002 hPa | - | - | 0 W/m² | - |
| 1777373052 | 41.67° C | 31% | 1002 hPa | - | - | 0 W/m² | - |
| 1777372121 | 40.56° C | 33% | 1002 hPa | - | - | 0 W/m² | - |
| 1777371193 | 40.56° C | 32% | 1001 hPa | - | - | 0 W/m² | - |
| 1777370266 | 40.56° C | 32% | 1001 hPa | - | - | 0 W/m² | - |
| 1777369339 | 41.67° C | 31% | 1001 hPa | - | - | 0 W/m² | - |
| 1777368412 | 41.11° C | 32% | 1001 hPa | - | - | 0 W/m² | - |
| 1777367484 | 41.67° C | 32% | 1002 hPa | - | - | 0 W/m² | - |
| 1777366557 | 41.67° C | 32% | 1002 hPa | - | - | 0 W/m² | - |
| 1777365631 | 41.11° C | 32% | 1002 hPa | - | - | 0 W/m² | - |
| 1777364703 | 41.11° C | 33% | 1003 hPa | - | - | 0 W/m² | - |
| 1777363776 | 40° C | 34% | 1003 hPa | - | - | 0 W/m² | - |
| 1777362848 | 41.11° C | 33% | 1003 hPa | - | - | 0 W/m² | - |
| 1777361921 | 40.56° C | 34% | 1003 hPa | - | - | 0 W/m² | - |
| 1777360993 | 39.44° C | 37% | 1004 hPa | - | - | 0 W/m² | - |
| 1777360064 | 40° C | 34% | 1004 hPa | - | - | 0 W/m² | - |
* Rain since midnight (hover to see other rain measurements)
** Current wind speed in m/s (hover to see current wind gust speed)